createdAt,value
2022-10-22T00:02:20.611Z,100517.75
2022-10-22T00:04:51.106Z,100518.81
2022-10-22T00:07:18.602Z,100515.69
2022-10-22T00:09:45.256Z,100518.56
2022-10-22T00:12:12.496Z,100521.44
2022-10-22T00:14:40.585Z,100529.53
2022-10-22T00:17:11.222Z,100522.22
2022-10-22T00:19:39.691Z,100536.34
2022-10-22T00:22:07.803Z,100543.66
2022-10-22T00:24:35.461Z,100549.41
2022-10-22T00:27:02.419Z,100546.28
2022-10-22T00:29:29.595Z,100551.75
2022-10-22T00:34:27.973Z,100537.91
2022-10-22T00:36:54.749Z,100532.16
2022-10-22T00:39:23.682Z,100527.97
2022-10-22T00:41:51.829Z,100537.91
2022-10-22T00:44:55.738Z,100539.75
2022-10-22T00:47:24.560Z,100541.81
2022-10-22T00:49:53.454Z,100541.56
2022-10-22T00:52:20.256Z,100543.38
2022-10-22T00:54:46.924Z,100546.28
2022-10-22T00:57:14.633Z,100541.81
2022-10-22T00:59:41.143Z,100539.47
2022-10-22T01:02:07.662Z,100540.50
2022-10-22T01:04:34.178Z,100539.47
2022-10-22T01:07:01.231Z,100543.13
2022-10-22T01:09:42.145Z,100543.66
2022-10-22T01:12:38.982Z,100541.56
2022-10-22T01:15:19.537Z,100542.63
2022-10-22T01:17:45.984Z,100543.13
2022-10-22T01:20:25.977Z,100545.72
2022-10-22T01:22:52.432Z,100545.22
2022-10-22T01:25:34.204Z,100546.53
2022-10-22T01:28:27.012Z,100563.00
2022-10-22T01:30:56.452Z,100571.09
2022-10-22T01:33:25.020Z,100570.31
2022-10-22T01:35:53.160Z,100577.66
2022-10-22T01:38:23.298Z,100584.16
2022-10-22T01:40:51.336Z,100577.38
2022-10-22T01:43:18.004Z,100573.19
2022-10-22T01:45:48.627Z,100575.28
2022-10-22T01:48:33.284Z,100571.09
2022-10-22T01:51:23.000Z,100563.00
2022-10-22T01:53:54.546Z,100561.44
2022-10-22T01:56:54.092Z,100553.34
2022-10-22T01:59:40.553Z,100565.59
2022-10-22T02:02:24.457Z,100565.59
2022-10-22T02:04:58.895Z,100564.06
2022-10-22T02:07:29.354Z,100573.72
2022-10-22T02:09:57.006Z,100561.69
2022-10-22T02:12:26.590Z,100567.47
2022-10-22T02:14:55.124Z,100563.53
2022-10-22T02:17:22.464Z,100557.78
2022-10-22T02:19:57.303Z,100555.66
2022-10-22T02:22:26.016Z,100546.00
2022-10-22T02:24:52.717Z,100541.81
2022-10-22T02:27:27.717Z,100530.84
2022-10-22T02:30:10.524Z,100537.63
2022-10-22T02:33:02.813Z,100542.34
2022-10-22T02:35:30.669Z,100531.38
2022-10-22T02:37:59.550Z,100536.88
2022-10-22T02:40:26.496Z,100536.34
2022-10-22T02:42:53.295Z,100531.88
2022-10-22T02:45:20.575Z,100542.63
2022-10-22T02:47:47.526Z,100543.13
2022-10-22T02:50:14.287Z,100545.22
2022-10-22T02:52:41.315Z,100553.06
2022-10-22T02:55:08.605Z,100549.13
2022-10-22T02:57:35.429Z,100548.34
2022-10-22T03:00:01.977Z,100545.22
2022-10-22T03:02:28.495Z,100548.09
2022-10-22T03:04:55.029Z,100556.47
2022-10-22T03:07:21.644Z,100552.00
2022-10-22T03:09:48.186Z,100544.66
2022-10-22T03:12:14.674Z,100548.59
2022-10-22T03:14:41.222Z,100549.09
2022-10-22T03:17:07.710Z,100543.34
2022-10-22T03:19:34.239Z,100561.41
2022-10-22T03:22:05.151Z,100571.31
2022-10-22T03:24:36.383Z,100572.63
2022-10-22T03:27:03.134Z,100573.94
2022-10-22T03:29:33.088Z,100571.59
2022-10-22T03:31:59.734Z,100573.41
2022-10-22T03:34:26.261Z,100576.28
2022-10-22T03:36:53.666Z,100577.59
2022-10-22T03:39:21.812Z,100572.06
2022-10-22T03:41:50.113Z,100580.19
2022-10-22T03:44:18.128Z,100576.28
2022-10-22T03:46:45.212Z,100578.06
2022-10-22T03:49:11.868Z,100583.81
2022-10-22T03:51:38.447Z,100577.81
2022-10-22T03:54:05.336Z,100569.19
2022-10-22T03:56:31.930Z,100567.63
2022-10-22T03:59:00.424Z,100571.81
2022-10-22T04:01:28.850Z,100570.25
2022-10-22T04:03:55.925Z,100583.81
2022-10-22T04:06:23.016Z,100573.38
2022-10-22T04:08:49.890Z,100582.75
2022-10-22T04:11:17.170Z,100591.13
2022-10-22T04:13:44.362Z,100594.78
2022-10-22T04:16:26.281Z,100596.06
2022-10-22T04:18:55.324Z,100601.53
2022-10-22T04:21:22.584Z,100602.34
2022-10-22T04:23:51.193Z,100593.19
2022-10-22T04:26:19.034Z,100600.50
2022-10-22T04:28:46.415Z,100600.50
2022-10-22T04:31:16.438Z,100598.94
2022-10-22T04:33:43.384Z,100603.09
2022-10-22T04:36:12.390Z,100617.47
2022-10-22T04:38:39.547Z,100615.91
2022-10-22T04:41:13.508Z,100621.34
2022-10-22T04:43:40.740Z,100622.94
2022-10-22T04:46:09.367Z,100624.22
2022-10-22T04:48:36.994Z,100619.81
2022-10-22T04:51:04.613Z,100619.00
2022-10-22T04:53:31.384Z,100617.44
2022-10-22T04:56:08.146Z,100613.50
2022-10-22T04:58:35.119Z,100619.25
2022-10-22T05:01:11.837Z,100624.72
2022-10-22T05:03:38.496Z,100634.94
2022-10-22T05:06:05.350Z,100626.84
2022-10-22T05:08:32.037Z,100622.88
2022-10-22T05:10:58.727Z,100630.22
2022-10-22T05:13:25.605Z,100630.22
2022-10-22T05:15:52.195Z,100635.66
2022-10-22T05:18:21.767Z,100627.56
2022-10-22T05:20:49.204Z,100631.25
2022-10-22T05:23:15.819Z,100627.78
2022-10-22T05:25:42.356Z,100630.16
2022-10-22T05:28:08.889Z,100630.16
2022-10-22T05:30:35.467Z,100634.31
2022-10-22T05:33:01.986Z,100643.72
2022-10-22T05:35:28.472Z,100635.63
2022-10-22T05:40:31.039Z,100639.53
2022-10-22T05:42:58.986Z,100644.75
2022-10-22T05:45:25.532Z,100643.16
2022-10-22T05:47:52.061Z,100648.13
2022-10-22T05:50:18.562Z,100644.19
2022-10-22T05:52:45.130Z,100644.72
2022-10-22T05:55:11.598Z,100648.09
2022-10-22T05:57:40.323Z,100655.41
2022-10-22T06:00:10.528Z,100649.69
2022-10-22T06:02:39.618Z,100650.19
2022-10-22T06:05:06.634Z,100652.03
2022-10-22T06:07:33.771Z,100668.69
2022-10-22T06:10:00.293Z,100656.19
2022-10-22T06:12:26.853Z,100662.69
2022-10-22T06:14:53.559Z,100667.66
2022-10-22T06:17:20.317Z,100674.69
2022-10-22T06:19:46.775Z,100669.97
2022-10-22T06:22:13.309Z,100669.19
2022-10-22T06:24:41.656Z,100667.91
2022-10-22T06:27:11.049Z,100660.31
2022-10-22T06:29:37.527Z,100668.94
2022-10-22T06:32:04.111Z,100662.38
2022-10-22T06:34:30.831Z,100662.38
2022-10-22T06:36:57.310Z,100677.25
2022-10-22T06:39:23.897Z,100664.22
2022-10-22T06:41:50.422Z,100674.88
2022-10-22T06:44:19.382Z,100675.69
2022-10-22T06:46:48.929Z,100683.78
2022-10-22T06:49:15.822Z,100686.38
2022-10-22T06:51:42.547Z,100679.06
2022-10-22T06:54:09.309Z,100678.81
2022-10-22T06:56:35.775Z,100687.69
2022-10-22T06:59:02.923Z,100690.00
2022-10-22T07:01:32.437Z,100693.44
2022-10-22T07:03:59.541Z,100697.31
2022-10-22T07:06:27.859Z,100690.56
2022-10-22T07:08:56.459Z,100699.91
2022-10-22T07:11:40.153Z,100707.22
2022-10-22T07:14:06.760Z,100705.16
2022-10-22T07:16:33.302Z,100710.38
2022-10-22T07:19:01.586Z,100716.91
2022-10-22T07:21:29.052Z,100717.16
2022-10-22T07:23:56.525Z,100707.78
2022-10-22T07:26:25.232Z,100719.25
2022-10-22T07:28:51.758Z,100726.56
2022-10-22T07:31:18.910Z,100731.53
2022-10-22T07:33:45.695Z,100739.63
2022-10-22T07:36:17.616Z,100736.75
2022-10-22T07:38:48.711Z,100729.44
2022-10-22T07:41:16.663Z,100742.22
2022-10-22T07:43:43.322Z,100739.09
2022-10-22T07:46:09.996Z,100742.50
2022-10-22T07:48:37.112Z,100745.09
2022-10-22T07:51:04.402Z,100758.44
2022-10-22T07:53:31.307Z,100757.13
2022-10-22T07:55:58.510Z,100766.53
2022-10-22T07:58:25.393Z,100767.31
2022-10-22T08:00:56.162Z,100768.59
2022-10-22T08:03:22.861Z,100774.63
2022-10-22T08:05:49.488Z,100778.28
2022-10-22T08:08:16.766Z,100776.50
2022-10-22T08:10:44.268Z,100777.50
2022-10-22T08:13:11.201Z,100781.72
2022-10-22T08:15:38.325Z,100780.13
2022-10-22T08:18:05.545Z,100785.66
2022-10-22T08:20:32.205Z,100786.41
2022-10-22T08:22:59.387Z,100781.50
2022-10-22T08:25:26.539Z,100793.25
2022-10-22T08:27:53.555Z,100781.25
2022-10-22T08:30:20.278Z,100789.34
2022-10-22T08:32:49.256Z,100792.50
2022-10-22T08:35:18.212Z,100790.94
2022-10-22T08:37:44.713Z,100796.94
2022-10-22T08:40:21.902Z,100797.22
2022-10-22T08:42:54.994Z,100807.72
2022-10-22T08:45:42.000Z,100807.72
2022-10-22T08:48:29.527Z,100810.84
2022-10-22T08:50:57.577Z,100812.44
2022-10-22T08:53:49.335Z,100806.69
2022-10-22T08:56:15.930Z,100801.50
2022-10-22T08:58:53.523Z,100802.81
2022-10-22T09:01:23.661Z,100806.22
2022-10-22T09:03:52.261Z,100806.50
2022-10-22T09:06:22.794Z,100802.06
2022-10-22T09:08:50.188Z,100814.09
2022-10-22T09:11:38.266Z,100809.91
2022-10-22T09:14:05.163Z,100816.75
2022-10-22T09:17:03.019Z,100806.81
2022-10-22T09:19:51.392Z,100815.22
2022-10-22T09:22:56.050Z,100816.75
2022-10-22T09:25:35.057Z,100821.47
2022-10-22T09:28:01.647Z,100816.81
2022-10-22T09:30:30.622Z,100817.88
2022-10-22T09:33:07.526Z,100818.16
2022-10-22T09:35:53.398Z,100820.00
2022-10-22T09:38:30.070Z,100823.91
2022-10-22T09:40:58.774Z,100814.78
2022-10-22T09:43:25.314Z,100826.06
2022-10-22T09:46:01.199Z,100829.97
2022-10-22T09:48:39.576Z,100826.09
2022-10-22T09:51:21.163Z,100827.38
2022-10-22T09:54:02.650Z,100827.94
2022-10-22T09:56:40.954Z,100831.88
2022-10-22T09:59:15.917Z,100831.63
2022-10-22T10:01:42.570Z,100827.44
2022-10-22T10:04:12.820Z,100831.66
2022-10-22T10:06:42.244Z,100830.34
2022-10-22T10:09:17.060Z,100838.47
2022-10-22T10:11:52.178Z,100841.34
2022-10-22T10:14:26.972Z,100838.78
2022-10-22T10:17:11.926Z,100841.41
2022-10-22T10:19:54.509Z,100840.38
2022-10-22T10:23:11.840Z,100839.03
2022-10-22T10:25:42.200Z,100847.44
2022-10-22T10:28:19.425Z,100838.81
2022-10-22T10:31:15.562Z,100844.31
2022-10-22T10:33:56.669Z,100842.78
2022-10-22T10:36:38.736Z,100842.53
2022-10-22T10:39:12.785Z,100834.16
2022-10-22T10:42:23.111Z,100830.50
2022-10-22T10:45:04.802Z,100838.38
2022-10-22T10:48:18.797Z,100829.72
2022-10-22T10:51:15.693Z,100849.63
2022-10-22T10:54:06.580Z,100842.31
2022-10-22T10:56:39.293Z,100839.75
2022-10-22T10:59:27.342Z,100840.28
2022-10-22T11:02:20.624Z,100841.78
2022-10-22T11:05:26.506Z,100847.09
2022-10-22T11:07:59.563Z,100846.84
2022-10-22T11:10:41.838Z,100844.22
2022-10-22T11:13:29.655Z,100838.75
2022-10-22T11:16:24.741Z,100841.09
2022-10-22T11:19:08.380Z,100835.63
2022-10-22T11:21:45.742Z,100833.78
2022-10-22T11:24:24.662Z,100834.59
2022-10-22T11:27:10.560Z,100829.34
2022-10-22T11:29:45.760Z,100827.28
2022-10-22T11:32:19.879Z,100821.50
2022-10-22T11:34:48.708Z,100824.13
2022-10-22T11:37:16.744Z,100823.59
2022-10-22T11:39:51.149Z,100827.03
2022-10-22T11:42:23.882Z,100829.66
2022-10-22T11:45:28.596Z,100822.06
2022-10-22T11:48:10.075Z,100823.91
2022-10-22T11:50:53.005Z,100830.19
2022-10-22T11:53:25.796Z,100829.13
2022-10-22T11:55:56.119Z,100823.91
2022-10-22T11:58:28.451Z,100831.50
2022-10-22T12:01:07.122Z,100837.53
2022-10-22T12:03:35.922Z,100840.91
2022-10-22T12:06:12.752Z,100846.44
2022-10-22T12:08:54.494Z,100847.22
2022-10-22T12:11:40.503Z,100847.22
2022-10-22T12:14:20.829Z,100840.94
2022-10-22T12:16:57.336Z,100833.09
2022-10-22T12:19:27.514Z,100836.75
2022-10-22T12:22:23.418Z,100828.34
2022-10-22T12:24:52.451Z,100827.31
2022-10-22T12:27:27.876Z,100838.56
2022-10-22T12:29:57.959Z,100830.97
2022-10-22T12:32:34.599Z,100831.75
2022-10-22T12:35:09.097Z,100843.03
2022-10-22T12:37:37.255Z,100828.63
2022-10-22T12:40:22.009Z,100841.19
2022-10-22T12:42:57.904Z,100845.13
2022-10-22T12:45:30.432Z,100845.63
2022-10-22T12:48:06.489Z,100847.72
2022-10-22T12:50:39.507Z,100851.91
2022-10-22T12:53:13.670Z,100851.69
2022-10-22T12:55:40.285Z,100858.19
2022-10-22T12:58:07.135Z,100848.81
2022-10-22T13:00:35.571Z,100847.78
2022-10-22T13:03:06.374Z,100849.84
2022-10-22T13:05:39.083Z,100843.81
2022-10-22T13:08:11.504Z,100845.66
2022-10-22T13:10:40.835Z,100845.66
2022-10-22T13:13:07.487Z,100852.44
2022-10-22T13:15:39.449Z,100852.19
2022-10-22T13:18:15.619Z,100857.97
2022-10-22T13:20:55.874Z,100847.97
2022-10-22T13:23:26.235Z,100849.81
2022-10-22T13:26:23.902Z,100844.31
2022-10-22T13:28:56.215Z,100827.81
2022-10-22T13:31:33.807Z,100821.53
2022-10-22T13:34:10.873Z,100845.88
2022-10-22T13:36:39.708Z,100836.94
2022-10-22T13:39:20.534Z,100843.25
2022-10-22T13:41:50.194Z,100850.06
2022-10-22T13:44:18.405Z,100846.66
2022-10-22T13:46:46.416Z,100838.53
2022-10-22T13:49:16.656Z,100839.31
2022-10-22T13:51:58.891Z,100821.50
2022-10-22T13:54:25.620Z,100846.66
2022-10-22T13:56:53.737Z,100836.41
2022-10-22T14:00:11.419Z,100847.16
2022-10-22T14:02:48.278Z,100824.88
2022-10-22T14:05:17.497Z,100847.91
2022-10-22T14:07:44.515Z,100847.91
2022-10-22T14:10:17.363Z,100847.41
2022-10-22T14:12:45.247Z,100843.72
2022-10-22T14:15:16.552Z,100852.63
2022-10-22T14:17:56.481Z,100846.34
2022-10-22T14:20:26.894Z,100850.53
2022-10-22T14:22:53.775Z,100850.81
2022-10-22T14:25:23.798Z,100850.53
2022-10-22T14:27:51.246Z,100857.88
2022-10-22T14:30:20.846Z,100857.34
2022-10-22T14:32:48.806Z,100858.66
2022-10-22T14:35:22.999Z,100857.34
2022-10-22T14:37:49.972Z,100858.16
2022-10-22T14:40:19.169Z,100867.31
2022-10-22T14:42:47.632Z,100862.84
2022-10-22T14:45:18.241Z,100861.78
2022-10-22T14:47:44.852Z,100868.34
2022-10-22T14:50:12.024Z,100870.72
2022-10-22T14:52:38.742Z,100873.59
2022-10-22T14:55:06.065Z,100864.41
2022-10-22T14:57:32.895Z,100868.06
2022-10-22T14:59:59.445Z,100868.84
2022-10-22T15:02:26.452Z,100874.63
2022-10-22T15:04:52.919Z,100871.75
2022-10-22T15:07:20.320Z,100871.75
2022-10-22T15:09:46.942Z,100869.66
2022-10-22T15:12:13.442Z,100872.00
2022-10-22T15:14:39.918Z,100875.69
2022-10-22T15:17:06.405Z,100876.97
2022-10-22T15:19:33.531Z,100879.34
2022-10-22T15:22:00.178Z,100888.53
2022-10-22T15:24:26.665Z,100879.09
2022-10-22T15:26:53.984Z,100876.97
2022-10-22T15:29:20.860Z,100888.53
2022-10-22T15:31:50.502Z,100888.78
2022-10-22T15:34:26.230Z,100901.66
2022-10-22T15:36:55.555Z,100895.63
2022-10-22T15:39:23.225Z,100896.94
2022-10-22T15:41:50.802Z,100894.28
2022-10-22T15:44:20.141Z,100904.28
2022-10-22T15:46:46.813Z,100907.69
2022-10-22T15:49:13.751Z,100910.59
2022-10-22T15:51:40.786Z,100911.88
2022-10-22T15:54:10.182Z,100917.66
2022-10-22T15:56:36.836Z,100923.19
2022-10-22T15:59:04.082Z,100933.38
2022-10-22T16:01:32.945Z,100935.50
2022-10-22T16:04:00.355Z,100936.78
2022-10-22T16:06:28.508Z,100943.91
2022-10-22T16:08:57.486Z,100939.44
2022-10-22T16:11:23.990Z,100950.97
2022-10-22T16:13:58.379Z,100942.06
2022-10-22T16:16:26.798Z,100935.50
2022-10-22T16:18:53.362Z,100940.47
2022-10-22T16:21:21.712Z,100946.25
2022-10-22T16:23:48.727Z,100946.00
2022-10-22T16:26:17.294Z,100947.59
2022-10-22T16:28:44.709Z,100953.06
2022-10-22T16:31:13.245Z,100956.75
2022-10-22T16:33:47.757Z,100954.41
2022-10-22T16:36:18.894Z,100970.13
2022-10-22T16:38:46.786Z,100967.25
2022-10-22T16:41:21.296Z,100967.25
2022-10-22T16:43:50.284Z,100976.41
2022-10-22T16:46:19.222Z,100972.75
2022-10-22T16:48:49.749Z,100984.00
2022-10-22T16:51:18.671Z,100985.59
2022-10-22T16:53:45.680Z,100989.53
2022-10-22T16:56:13.883Z,100998.44
2022-10-22T16:58:53.758Z,101007.63
2022-10-22T17:01:22.604Z,101011.06
2022-10-22T17:03:49.127Z,101013.94
2022-10-22T17:06:16.056Z,101018.66
2022-10-22T17:08:43.344Z,101016.53
2022-10-22T17:11:13.463Z,101015.75
2022-10-22T17:13:41.817Z,101023.63
2022-10-22T17:16:12.241Z,101018.38
2022-10-22T17:18:41.561Z,101022.06
2022-10-22T17:21:09.992Z,101019.16
2022-10-22T17:23:37.540Z,101022.06
2022-10-22T17:26:07.336Z,101025.47
2022-10-22T17:28:35.882Z,101030.16
2022-10-22T17:31:08.189Z,101025.97
2022-10-22T17:33:36.181Z,101031.22
2022-10-22T17:36:05.969Z,101032.78
2022-10-22T17:38:32.432Z,101029.91
2022-10-22T17:41:01.619Z,101033.31
2022-10-22T17:43:30.696Z,101036.97
2022-10-22T17:46:10.649Z,101034.88
2022-10-22T17:48:37.420Z,101039.34
2022-10-22T17:51:08.020Z,101043.00
2022-10-22T17:53:34.749Z,101044.59
2022-10-22T17:56:03.779Z,101050.34
2022-10-22T17:58:30.800Z,101053.75
2022-10-22T18:00:58.009Z,101046.41
2022-10-22T18:03:25.336Z,101048.50
2022-10-22T18:05:51.944Z,101039.09
2022-10-22T18:08:18.433Z,101051.91
2022-10-22T18:10:45.068Z,101049.56
2022-10-22T18:13:11.804Z,101057.44
2022-10-22T18:15:38.435Z,101060.31
2022-10-22T18:18:05.110Z,101070.25
2022-10-22T18:20:31.779Z,101055.59
2022-10-22T18:22:58.405Z,101065.78
2022-10-22T18:25:25.161Z,101063.47
2022-10-22T18:27:51.805Z,101071.03
2022-10-22T18:30:18.353Z,101060.28
2022-10-22T18:32:44.877Z,101071.03
2022-10-22T18:35:11.979Z,101069.47
2022-10-22T18:37:39.981Z,101066.56
2022-10-22T18:40:08.823Z,101081.50
2022-10-22T18:42:39.760Z,101074.97
2022-10-22T18:45:07.294Z,101077.59
2022-10-22T18:47:33.793Z,101076.25
2022-10-22T18:50:00.350Z,101079.66
2022-10-22T18:52:26.908Z,101077.31
2022-10-22T18:54:53.483Z,101090.41
2022-10-22T18:57:19.971Z,101087.28
2022-10-22T18:59:46.503Z,101080.72
2022-10-22T19:02:16.086Z,101082.81
2022-10-22T19:04:43.920Z,101087.81
2022-10-22T19:07:12.385Z,101084.13
2022-10-22T19:09:40.833Z,101091.72
2022-10-22T19:12:07.579Z,101095.38
2022-10-22T19:14:34.163Z,101100.84
2022-10-22T19:17:01.078Z,101100.84
2022-10-22T19:19:28.686Z,101102.16
2022-10-22T19:21:56.825Z,101105.03
2022-10-22T19:24:23.451Z,101101.88
2022-10-22T19:26:50.233Z,101096.13
2022-10-22T19:29:19.454Z,101106.06
2022-10-22T19:31:46.819Z,101107.38
2022-10-22T19:34:13.544Z,101101.34
2022-10-22T19:36:40.623Z,101102.94
2022-10-22T19:39:07.645Z,101105.81
2022-10-22T19:41:34.926Z,101107.09
2022-10-22T19:44:01.766Z,101111.31
2022-10-22T19:46:30.278Z,101120.72
2022-10-22T19:48:57.338Z,101119.19
2022-10-22T19:51:33.798Z,101113.94
2022-10-22T19:54:03.158Z,101116.81
2022-10-22T19:56:30.473Z,101118.09
2022-10-22T19:58:57.545Z,101123.88
2022-10-22T20:01:24.410Z,101124.38
2022-10-22T20:03:51.084Z,101123.31
2022-10-22T20:06:18.712Z,101135.13
2022-10-22T20:08:46.777Z,101131.97
2022-10-22T20:11:20.436Z,101142.19
2022-10-22T20:13:51.182Z,101140.59
2022-10-22T20:16:23.115Z,101147.69
2022-10-22T20:18:50.684Z,101145.34
2022-10-22T20:21:19.270Z,101159.22
2022-10-22T20:23:47.092Z,101161.28
2022-10-22T20:26:13.881Z,101161.03
2022-10-22T20:28:40.353Z,101162.88
2022-10-22T20:31:11.747Z,101174.66
2022-10-22T20:33:38.410Z,101166.53
2022-10-22T20:36:09.603Z,101167.81
2022-10-22T20:41:09.926Z,101168.34
2022-10-22T20:43:36.721Z,101166.78
2022-10-22T20:46:04.297Z,101167.00
2022-10-22T20:48:31.602Z,101165.19
2022-10-22T20:50:59.522Z,101172.25
2022-10-22T20:53:27.000Z,101172.25
2022-10-22T20:55:57.409Z,101175.94
2022-10-22T20:58:26.677Z,101183.50
2022-10-22T21:00:55.071Z,101182.72
2022-10-22T21:03:21.880Z,101181.16
2022-10-22T21:05:48.770Z,101167.00
2022-10-22T21:08:17.483Z,101172.75
2022-10-22T21:10:46.398Z,101175.63
2022-10-22T21:13:13.675Z,101177.44
2022-10-22T21:15:40.377Z,101177.94
2022-10-22T21:18:08.004Z,101180.84
2022-10-22T21:20:34.668Z,101179.28
2022-10-22T21:23:01.260Z,101184.75
2022-10-22T21:25:27.791Z,101177.16
2022-10-22T21:27:54.305Z,101176.84
2022-10-22T21:30:20.772Z,101178.19
2022-10-22T21:32:47.350Z,101183.94
2022-10-22T21:35:13.908Z,101189.13
2022-10-22T21:37:40.823Z,101194.91
2022-10-22T21:40:08.233Z,101188.56
2022-10-22T21:42:34.739Z,101187.00
2022-10-22T21:45:01.323Z,101185.94
2022-10-22T21:47:27.927Z,101184.88
2022-10-22T21:49:54.443Z,101188.28
2022-10-22T21:52:21.024Z,101187.22
2022-10-22T21:54:47.550Z,101186.94
2022-10-22T21:57:14.213Z,101191.88
2022-10-22T21:59:40.690Z,101195.31
2022-10-22T22:02:07.269Z,101194.75
2022-10-22T22:04:34.050Z,101195.53
2022-10-22T22:07:00.578Z,101191.59
2022-10-22T22:09:27.173Z,101196.53
2022-10-22T22:11:53.995Z,101196.78
2022-10-22T22:14:20.531Z,101193.63
2022-10-22T22:16:47.056Z,101192.84
2022-10-22T22:19:13.739Z,101197.03
2022-10-22T22:21:41.137Z,101194.66
2022-10-22T22:24:10.863Z,101185.97
2022-10-22T22:26:37.453Z,101193.31
2022-10-22T22:29:04.149Z,101193.53
2022-10-22T22:31:33.514Z,101187.78
2022-10-22T22:34:14.309Z,101190.91
2022-10-22T22:36:45.771Z,101190.09
2022-10-22T22:39:17.968Z,101183.78
2022-10-22T22:41:45.301Z,101185.09
2022-10-22T22:44:12.875Z,101189.25
2022-10-22T22:46:39.765Z,101185.31
2022-10-22T22:49:06.979Z,101188.72
2022-10-22T22:51:33.665Z,101187.09
2022-10-22T22:54:01.018Z,101177.41
2022-10-22T22:56:30.017Z,101174.22
2022-10-22T22:58:56.898Z,101177.59
2022-10-22T23:01:38.131Z,101177.59
2022-10-22T23:04:26.596Z,101172.91
2022-10-22T23:06:53.202Z,101173.41
2022-10-22T23:11:51.863Z,101168.38
2022-10-22T23:14:19.384Z,101175.94
2022-10-22T23:16:49.183Z,101173.06
2022-10-22T23:19:19.160Z,101172.75
2022-10-22T23:21:51.298Z,101178.75
2022-10-22T23:24:20.518Z,101169.06
2022-10-22T23:26:49.571Z,101169.06
2022-10-22T23:29:22.619Z,101167.47
2022-10-22T23:31:50.441Z,101170.09
2022-10-22T23:34:22.869Z,101170.31
2022-10-22T23:36:50.472Z,101172.38
2022-10-22T23:39:19.790Z,101173.69
2022-10-22T23:41:46.911Z,101165.78
2022-10-22T23:44:13.895Z,101187.50
2022-10-22T23:46:41.519Z,101177.78
2022-10-22T23:49:09.715Z,101192.16
2022-10-22T23:51:36.306Z,101182.47
2022-10-22T23:54:05.605Z,101180.09
2022-10-22T23:56:33.110Z,101182.72
2022-10-22T23:58:59.684Z,101183.72
